Portada
METAR-TAF:

METAR-TAF

Aeroports :

Talara, Perú

latitud: 04-34S, longitud: 081-15W, altitud: 85 m

Observació

L'informe es va fer fa 38 minuts, a les 00:00 UTC
Temperatura 19°C
Humitat 83%
Pressió 1011 hPa
Visibilitat 10 km o més
sense núvols per sota de 1500 mi sense presència de cumulonimbus.

METAR: SPYL 200000Z /////KT CAVOK 19/16 Q1011 RMK BIRD HAZARD RWY 17/35 PP000

Hora: 19:38 (00:38 UTC)

Pronòstic

L'informe es va fer fa 1 hora i 33 minuts, a les 23:05 UTC
Pronòstic vàlid del 20 a les 00 UTC al 20 a les 24 UTC
Vent 12 kt del Sud/Sud-Est
Visibilitat 10 km o més
sense núvols per sota de 1500 mi sense presència de cumulonimbus.
Evolucionant progressivament
l' 20 a les 16 UTC al 20 a les 18 UTC
Vent 14 kt del Sud-Oest

TAF: SPYL 192305Z 2000/2024 15012KT CAVOK TX26/2019Z TN15/2011Z BECMG 2016/2018 22014KT

Observacions i pronòstics meteorològics de més de 4000 aeroports (METAR i TAF).

Les estacions disponibles són els punts grocs i vermells al mapa.

Posi el ratolí al punt desitjat per veure el nom de l'estació.

Feu clic per veure les observacions i els pronòstics meteorològics.

Per canviar el mapa: feu clic els botons verds amb una creu de color negre per apropar; al botó verd amb un guió per allunyar la imatge; o en les fletxes verdes per a mapes adjacents.


METAR-TAF: